createdAt,value
2019-05-13T00:01:14.418Z,71.42
2019-05-13T00:03:44.062Z,71.53
2019-05-13T00:06:13.378Z,71.62
2019-05-13T00:08:43.864Z,71.65
2019-05-13T00:11:13.676Z,71.74
2019-05-13T00:13:41.635Z,71.78
2019-05-13T00:16:09.841Z,71.86
2019-05-13T00:18:38.058Z,71.88
2019-05-13T00:21:06.272Z,72.11
2019-05-13T00:23:34.796Z,72.06
2019-05-13T00:26:03.861Z,72.23
2019-05-13T00:28:34.166Z,72.21
2019-05-13T00:31:03.418Z,72.27
2019-05-13T00:33:33.931Z,72.40
2019-05-13T00:36:03.971Z,72.41
2019-05-13T00:38:33.586Z,72.46
2019-05-13T00:41:03.637Z,72.48
2019-05-13T00:43:33.915Z,72.56
2019-05-13T00:46:03.895Z,72.72
2019-05-13T00:48:33.513Z,72.68
2019-05-13T00:51:03.804Z,72.65
2019-05-13T00:53:32.585Z,72.71
2019-05-13T00:56:00.810Z,72.69
2019-05-13T00:58:29.154Z,72.81
2019-05-13T01:00:57.392Z,72.97
2019-05-13T01:03:28.368Z,72.87
2019-05-13T01:05:55.915Z,72.90
2019-05-13T01:08:25.094Z,72.91
2019-05-13T01:10:53.753Z,72.94
2019-05-13T01:13:23.726Z,73.02
2019-05-13T01:15:54.304Z,73.08
2019-05-13T01:18:23.425Z,73.08
2019-05-13T01:20:53.631Z,73.09
2019-05-13T01:23:24.044Z,73.17
2019-05-13T01:25:54.272Z,73.17
2019-05-13T01:28:23.949Z,73.29
2019-05-13T01:30:53.988Z,73.29
2019-05-13T01:33:23.583Z,73.60
2019-05-13T01:35:53.776Z,73.52
2019-05-13T01:38:40.341Z,73.55
2019-05-13T01:41:08.566Z,73.52
2019-05-13T01:43:36.783Z,73.58
2019-05-13T01:46:05.018Z,73.62
2019-05-13T01:48:33.442Z,73.72
2019-05-13T01:51:03.819Z,73.74
2019-05-13T01:53:33.584Z,73.76
2019-05-13T01:56:03.784Z,73.81
2019-05-13T01:58:33.818Z,73.87
2019-05-13T02:01:01.477Z,73.87
2019-05-13T02:03:29.699Z,73.85
2019-05-13T02:05:57.907Z,73.99
2019-05-13T02:08:26.125Z,73.99
2019-05-13T02:10:58.774Z,74.03
2019-05-13T02:13:26.987Z,74.00
2019-05-13T02:15:55.693Z,74.02
2019-05-13T02:18:24.708Z,74.11
2019-05-13T02:20:55.405Z,74.14
2019-05-13T02:23:23.898Z,74.08
2019-05-13T02:25:54.303Z,74.34
2019-05-13T02:28:24.633Z,74.17
2019-05-13T02:30:55.793Z,74.25
2019-05-13T02:33:23.245Z,74.21
2019-05-13T02:35:53.168Z,74.25
2019-05-13T02:38:26.319Z,74.22
2019-05-13T02:40:52.613Z,74.23
2019-05-13T02:43:23.233Z,74.30
2019-05-13T02:45:53.176Z,74.29
2019-05-13T02:48:23.288Z,74.30
2019-05-13T02:50:52.897Z,74.39
2019-05-13T02:53:23.626Z,74.40
2019-05-13T02:55:52.401Z,74.42
2019-05-13T02:58:24.370Z,74.51
2019-05-13T03:00:53.188Z,74.52
2019-05-13T03:03:23.149Z,74.49
2019-05-13T03:05:52.717Z,74.50
2019-05-13T03:08:38.613Z,74.55
2019-05-13T03:10:53.154Z,74.57
2019-05-13T03:13:23.372Z,74.60
2019-05-13T03:15:52.365Z,74.56
2019-05-13T03:18:22.570Z,74.78
2019-05-13T03:20:52.953Z,74.66
2019-05-13T03:23:22.727Z,74.66
2019-05-13T03:25:53.722Z,74.65
2019-05-13T03:28:22.396Z,74.68
2019-05-13T03:30:55.552Z,74.75
2019-05-13T03:33:27.511Z,74.71
2019-05-13T03:35:55.880Z,74.67
2019-05-13T03:38:22.554Z,74.63
2019-05-13T03:40:52.648Z,74.60
2019-05-13T03:43:22.927Z,74.37
2019-05-13T03:45:52.699Z,74.29
2019-05-13T03:48:23.548Z,74.06
2019-05-13T03:50:53.381Z,73.90
2019-05-13T03:53:23.448Z,73.70
2019-05-13T03:55:54.103Z,73.50
2019-05-13T03:58:23.948Z,72.62
2019-05-13T04:00:51.975Z,70.05
2019-05-13T04:03:22.794Z,67.24
2019-05-13T04:05:52.802Z,64.22
2019-05-13T04:08:22.814Z,62.02
2019-05-13T04:10:52.544Z,59.93
2019-05-13T04:13:23.422Z,57.85
2019-05-13T04:15:52.834Z,55.40
2019-05-13T04:18:23.296Z,53.25
2019-05-13T04:20:52.760Z,51.11
2019-05-13T04:23:22.950Z,50.05
2019-05-13T04:25:53.370Z,48.56
2019-05-13T04:28:22.195Z,46.94
2019-05-13T04:30:52.567Z,45.32
2019-05-13T04:33:22.625Z,44.42
2019-05-13T04:35:52.647Z,43.11
2019-05-13T04:38:22.567Z,41.77
2019-05-13T04:40:52.646Z,41.41
2019-05-13T04:43:23.229Z,40.57
2019-05-13T04:45:52.376Z,39.62
2019-05-13T04:48:22.598Z,38.75
2019-05-13T04:50:53.021Z,37.83
2019-05-13T04:53:22.637Z,37.29
2019-05-13T04:55:52.394Z,36.57
2019-05-13T04:58:23.168Z,36.40
2019-05-13T05:01:08.653Z,35.50
2019-05-13T05:03:45.713Z,35.35
2019-05-13T05:06:17.359Z,34.95
2019-05-13T05:09:05.127Z,34.54
2019-05-13T05:11:52.905Z,34.30
2019-05-13T05:14:57.930Z,33.88
2019-05-13T05:17:44.015Z,33.60
2019-05-13T05:20:32.233Z,33.43
2019-05-13T05:23:12.445Z,33.61
2019-05-13T05:25:55.258Z,33.39
2019-05-13T05:28:46.276Z,33.87
2019-05-13T05:31:34.009Z,33.94
2019-05-13T05:34:23.572Z,34.29
2019-05-13T05:37:03.591Z,34.04
2019-05-13T05:39:31.829Z,33.50
2019-05-13T05:42:02.244Z,33.61
2019-05-13T05:44:32.391Z,33.88
2019-05-13T05:47:02.847Z,33.81
2019-05-13T05:49:32.037Z,33.15
2019-05-13T05:52:05.817Z,33.46
2019-05-13T05:54:37.931Z,33.79
2019-05-13T05:57:06.783Z,33.81
2019-05-13T05:59:34.997Z,33.77
2019-05-13T06:02:03.684Z,33.88
2019-05-13T06:04:32.639Z,34.34
2019-05-13T06:07:03.206Z,35.17
2019-05-13T06:09:32.200Z,36.13
2019-05-13T06:12:01.713Z,37.01
2019-05-13T06:14:32.672Z,38.52
2019-05-13T06:17:02.688Z,40.08
2019-05-13T06:19:31.870Z,40.73
2019-05-13T06:22:02.160Z,41.67
2019-05-13T06:24:31.248Z,42.32
2019-05-13T06:27:01.507Z,42.81
2019-05-13T06:29:31.606Z,42.85
2019-05-13T06:32:15.055Z,43.11
2019-05-13T06:34:32.801Z,43.08
2019-05-13T06:37:01.768Z,43.04
2019-05-13T06:39:31.722Z,42.78
2019-05-13T06:42:02.354Z,42.75
2019-05-13T06:44:31.681Z,42.57
2019-05-13T06:47:02.501Z,42.66
2019-05-13T06:49:32.212Z,42.57
2019-05-13T06:52:01.743Z,42.59
2019-05-13T06:54:32.524Z,42.58
2019-05-13T06:57:03.439Z,42.58
2019-05-13T06:59:31.587Z,42.52
2019-05-13T07:02:01.815Z,42.44
2019-05-13T07:04:29.484Z,42.26
2019-05-13T07:07:09.840Z,42.40
2019-05-13T07:09:27.666Z,42.33
2019-05-13T07:11:56.984Z,42.29
2019-05-13T07:14:25.406Z,41.63
2019-05-13T07:16:53.639Z,41.41
2019-05-13T07:19:23.875Z,41.67
2019-05-13T07:21:52.161Z,41.40
2019-05-13T07:24:21.456Z,41.49
2019-05-13T07:26:52.160Z,41.40
2019-05-13T07:29:20.319Z,41.05
2019-05-13T07:31:48.905Z,41.33
2019-05-13T07:34:17.133Z,41.15
2019-05-13T07:36:45.360Z,40.76
2019-05-13T07:39:13.591Z,40.01
2019-05-13T07:41:43.138Z,39.89
2019-05-13T07:44:12.025Z,39.51
2019-05-13T07:46:42.745Z,39.24
2019-05-13T07:49:11.985Z,38.98
2019-05-13T07:51:42.043Z,39.00
2019-05-13T07:54:11.423Z,38.54
2019-05-13T07:56:42.389Z,37.92
2019-05-13T07:59:12.048Z,37.68
2019-05-13T08:01:41.700Z,37.74
2019-05-13T08:04:21.764Z,37.44
2019-05-13T08:06:41.659Z,36.80
2019-05-13T08:09:12.562Z,36.59
2019-05-13T08:11:56.259Z,36.05
2019-05-13T08:14:12.208Z,35.25
2019-05-13T08:16:39.570Z,34.91
2019-05-13T08:19:07.796Z,34.93
2019-05-13T08:21:36.003Z,35.28
2019-05-13T08:24:04.289Z,35.11
2019-05-13T08:26:32.551Z,34.76
2019-05-13T08:29:04.927Z,34.02
2019-05-13T08:31:32.234Z,34.19
2019-05-13T08:34:02.490Z,34.00
2019-05-13T08:36:32.727Z,34.25
2019-05-13T08:39:02.648Z,34.26
2019-05-13T08:41:32.202Z,34.18
2019-05-13T08:44:01.707Z,34.27
2019-05-13T08:46:32.235Z,31.96
2019-05-13T08:49:03.692Z,30.72
2019-05-13T08:51:32.293Z,30.65
2019-05-13T08:54:02.315Z,30.95
2019-05-13T08:56:32.489Z,32.34
2019-05-13T08:59:01.190Z,32.99
2019-05-13T09:01:31.843Z,33.33
2019-05-13T09:04:02.291Z,33.56
2019-05-13T09:06:31.254Z,33.22
2019-05-13T09:08:59.576Z,33.39
2019-05-13T09:11:27.887Z,31.84
2019-05-13T09:13:56.094Z,30.46
2019-05-13T09:16:24.393Z,30.44
2019-05-13T09:18:52.563Z,30.21
2019-05-13T09:21:22.477Z,29.70
2019-05-13T09:23:51.539Z,29.85
2019-05-13T09:26:22.363Z,29.84
2019-05-13T09:28:52.012Z,29.41
2019-05-13T09:31:22.065Z,27.43
2019-05-13T09:33:51.918Z,27.82
2019-05-13T09:36:21.781Z,27.96
2019-05-13T09:38:52.325Z,28.12
2019-05-13T09:41:21.433Z,29.66
2019-05-13T09:43:51.392Z,30.10
2019-05-13T09:46:19.514Z,29.74
2019-05-13T09:48:47.764Z,28.96
2019-05-13T09:51:15.995Z,29.25
2019-05-13T09:53:44.211Z,28.97
2019-05-13T09:56:12.425Z,28.34
2019-05-13T09:58:42.022Z,27.83
2019-05-13T10:01:12.379Z,27.71
2019-05-13T10:03:53.883Z,27.71
2019-05-13T10:06:12.633Z,27.04
2019-05-13T10:08:41.798Z,26.72
2019-05-13T10:11:12.303Z,26.91
2019-05-13T10:13:40.069Z,26.98
2019-05-13T10:16:08.303Z,26.79
2019-05-13T10:18:36.517Z,26.74
2019-05-13T10:21:04.720Z,26.74
2019-05-13T10:23:33.435Z,26.45
2019-05-13T10:26:04.776Z,26.34
2019-05-13T10:28:32.981Z,25.16
2019-05-13T10:31:01.218Z,24.05
2019-05-13T10:33:31.707Z,24.50
2019-05-13T10:35:59.372Z,23.48
2019-05-13T10:38:28.152Z,23.82
2019-05-13T10:40:56.400Z,24.08
2019-05-13T10:43:31.464Z,23.88
2019-05-13T10:45:54.529Z,24.22
2019-05-13T10:48:23.016Z,24.18
2019-05-13T10:53:22.311Z,24.33
2019-05-13T10:55:52.208Z,24.74
2019-05-13T10:58:23.449Z,24.82
2019-05-13T11:00:53.100Z,24.80
2019-05-13T11:03:23.037Z,24.85
2019-05-13T11:05:52.554Z,25.02
2019-05-13T11:08:22.143Z,24.88
2019-05-13T11:10:53.206Z,25.24
2019-05-13T11:13:23.317Z,25.98
2019-05-13T11:15:57.101Z,26.47
2019-05-13T11:18:23.709Z,26.89
2019-05-13T11:20:51.077Z,27.29
2019-05-13T11:23:19.324Z,27.51
2019-05-13T11:25:47.557Z,27.54
2019-05-13T11:28:15.763Z,27.31
2019-05-13T11:30:44.263Z,27.35
2019-05-13T11:33:12.796Z,26.66
2019-05-13T11:35:41.472Z,26.61
2019-05-13T11:38:12.155Z,26.64
2019-05-13T11:40:39.874Z,26.39
2019-05-13T11:43:08.072Z,25.70
2019-05-13T11:45:36.586Z,26.05
2019-05-13T11:48:05.006Z,26.54
2019-05-13T11:50:33.528Z,26.96
2019-05-13T11:53:05.983Z,27.38
2019-05-13T11:55:31.939Z,27.29
2019-05-13T11:58:02.864Z,27.50
2019-05-13T12:00:47.804Z,28.67
2019-05-13T12:03:16.214Z,29.33
2019-05-13T12:05:44.836Z,29.50
2019-05-13T12:08:13.072Z,29.78
2019-05-13T12:10:43.988Z,29.92
2019-05-13T12:13:12.519Z,30.01
2019-05-13T12:18:12.688Z,30.23
2019-05-13T12:20:42.724Z,30.37
2019-05-13T12:23:13.029Z,31.02
2019-05-13T12:25:43.797Z,31.64
2019-05-13T12:28:11.470Z,30.79
2019-05-13T12:30:41.781Z,30.53
2019-05-13T12:33:12.959Z,30.83
2019-05-13T12:35:39.629Z,30.79
2019-05-13T12:38:07.866Z,30.62
2019-05-13T12:40:36.091Z,30.11
2019-05-13T12:43:04.344Z,29.22
2019-05-13T12:45:32.540Z,28.63
2019-05-13T12:48:03.302Z,28.53
2019-05-13T12:50:32.877Z,28.08
2019-05-13T12:53:02.745Z,27.44
2019-05-13T12:55:33.158Z,27.26
2019-05-13T12:58:02.640Z,26.80
2019-05-13T13:00:32.898Z,26.57
2019-05-13T13:03:02.047Z,26.48
2019-05-13T13:05:36.199Z,26.32
2019-05-13T13:08:18.301Z,26.50
2019-05-13T13:10:34.441Z,26.75
2019-05-13T13:13:02.199Z,26.80
2019-05-13T13:15:38.397Z,26.58
2019-05-13T13:18:02.572Z,26.46
2019-05-13T13:20:33.548Z,26.21
2019-05-13T13:23:04.305Z,26.51
2019-05-13T13:25:33.608Z,26.96
2019-05-13T13:28:10.643Z,27.05
2019-05-13T13:30:35.175Z,27.22
2019-05-13T13:33:02.809Z,27.03
2019-05-13T13:35:33.746Z,26.71
2019-05-13T13:38:04.134Z,26.07
2019-05-13T13:40:34.738Z,26.24
2019-05-13T13:43:05.300Z,26.34
2019-05-13T13:45:37.415Z,26.39
2019-05-13T13:48:03.965Z,26.55
2019-05-13T13:50:33.556Z,26.72
2019-05-13T13:53:00.729Z,26.64
2019-05-13T13:55:31.433Z,26.60
2019-05-13T13:57:58.828Z,26.72
2019-05-13T14:00:38.114Z,26.98
2019-05-13T14:02:56.981Z,27.06
2019-05-13T14:05:25.193Z,27.12
2019-05-13T14:07:00.434Z,30.47
2019-05-13T14:07:02.788Z,24.02
2019-05-13T14:07:53.394Z,27.64
2019-05-13T14:10:22.080Z,27.74
2019-05-13T14:12:52.434Z,27.84
2019-05-13T14:15:21.539Z,27.87
2019-05-13T14:17:51.718Z,27.83
2019-05-13T14:20:21.927Z,27.78
2019-05-13T14:22:56.510Z,27.71
2019-05-13T14:25:22.238Z,27.41
2019-05-13T14:27:49.680Z,27.27
2019-05-13T14:30:17.942Z,27.27
2019-05-13T14:32:46.160Z,27.33
2019-05-13T14:35:14.377Z,27.18
2019-05-13T14:37:42.605Z,27.28
2019-05-13T14:40:14.161Z,27.04
2019-05-13T14:42:42.663Z,27.06
2019-05-13T14:45:12.229Z,27.24
2019-05-13T14:47:40.557Z,27.28
2019-05-13T14:50:08.896Z,27.36
2019-05-13T14:52:37.167Z,27.48
2019-05-13T14:55:07.127Z,28.79
2019-05-13T15:00:11.181Z,28.95
2019-05-13T15:02:42.149Z,28.89
2019-05-13T15:05:12.008Z,28.97
2019-05-13T15:07:52.811Z,29.27
2019-05-13T15:10:21.913Z,29.37
2019-05-13T15:12:52.380Z,29.54
2019-05-13T15:15:22.232Z,29.87
2019-05-13T15:17:51.877Z,29.87
2019-05-13T15:20:21.785Z,30.29
2019-05-13T15:22:51.900Z,30.53
2019-05-13T15:25:22.080Z,30.84
2019-05-13T15:27:52.675Z,31.00
2019-05-13T15:30:21.785Z,31.26
2019-05-13T15:32:52.329Z,31.29
2019-05-13T15:35:19.978Z,31.30
2019-05-13T15:37:48.476Z,31.42
2019-05-13T15:40:16.678Z,31.74
2019-05-13T15:42:45.534Z,32.28
2019-05-13T15:45:14.517Z,32.70
2019-05-13T15:47:43.033Z,33.18
2019-05-13T15:50:12.432Z,33.49
2019-05-13T15:52:43.191Z,33.51
2019-05-13T15:55:13.876Z,33.97
2019-05-13T15:57:42.939Z,34.10
2019-05-13T16:00:12.692Z,34.15
2019-05-13T16:02:42.290Z,34.18
2019-05-13T16:05:12.052Z,34.23
2019-05-13T16:07:41.807Z,34.58
2019-05-13T16:10:11.445Z,34.66
2019-05-13T16:12:40.100Z,34.80
2019-05-13T16:15:12.394Z,35.04
2019-05-13T16:17:44.513Z,35.30
2019-05-13T16:20:09.966Z,35.47
2019-05-13T16:22:38.373Z,36.00
2019-05-13T16:25:07.519Z,36.34
2019-05-13T16:27:35.725Z,36.47
2019-05-13T16:30:06.393Z,36.83
2019-05-13T16:32:34.700Z,37.08
2019-05-13T16:35:03.088Z,37.39
2019-05-13T16:37:32.157Z,37.53
2019-05-13T16:40:00.665Z,37.85
2019-05-13T16:42:31.227Z,37.80
2019-05-13T16:44:58.826Z,38.12
2019-05-13T16:47:27.088Z,38.90
2019-05-13T16:49:55.338Z,39.30
2019-05-13T16:52:23.539Z,39.73
2019-05-13T16:54:53.226Z,39.89
2019-05-13T16:57:21.754Z,40.14
2019-05-13T16:59:51.713Z,40.40
2019-05-13T17:02:20.075Z,40.40
2019-05-13T17:04:48.308Z,40.68
2019-05-13T17:07:16.528Z,40.91
2019-05-13T17:09:45.032Z,41.02
2019-05-13T17:12:15.900Z,41.23
2019-05-13T17:14:44.026Z,41.26
2019-05-13T17:17:12.754Z,41.42
2019-05-13T17:19:42.233Z,41.53
2019-05-13T17:22:10.706Z,41.63
2019-05-13T17:24:38.950Z,41.56
2019-05-13T17:27:07.920Z,41.63
2019-05-13T17:29:36.254Z,41.81
2019-05-13T17:32:04.801Z,41.74
2019-05-13T17:34:33.105Z,41.66
2019-05-13T17:37:02.619Z,41.51
2019-05-13T17:39:32.241Z,41.65
2019-05-13T17:42:01.495Z,41.81
2019-05-13T17:44:31.751Z,42.05
2019-05-13T17:47:01.635Z,42.22
2019-05-13T17:49:31.786Z,42.41
2019-05-13T17:52:02.403Z,42.43
2019-05-13T17:54:31.877Z,42.76
2019-05-13T17:57:01.952Z,42.84
2019-05-13T17:59:31.570Z,42.83
2019-05-13T18:02:02.604Z,43.16
2019-05-13T18:04:31.392Z,43.64
2019-05-13T18:07:01.643Z,43.90
2019-05-13T18:09:31.940Z,44.19
2019-05-13T18:12:02.399Z,44.89
2019-05-13T18:14:30.477Z,45.02
2019-05-13T18:17:01.356Z,45.31
2019-05-13T18:19:31.483Z,45.77
2019-05-13T18:21:59.059Z,46.17
2019-05-13T18:24:27.294Z,46.57
2019-05-13T18:26:55.515Z,46.82
2019-05-13T18:29:24.135Z,46.93
2019-05-13T18:31:52.819Z,47.22
2019-05-13T18:34:21.564Z,47.46
2019-05-13T18:36:51.630Z,47.91
2019-05-13T18:39:21.608Z,48.27
2019-05-13T18:41:50.037Z,48.49
2019-05-13T18:44:18.435Z,48.83
2019-05-13T18:46:46.643Z,49.17
2019-05-13T18:49:14.913Z,49.41
2019-05-13T18:51:45.928Z,49.53
2019-05-13T18:54:14.729Z,49.59
2019-05-13T18:56:46.126Z,49.85
2019-05-13T18:59:13.231Z,50.06
2019-05-13T19:01:41.660Z,50.36
2019-05-13T19:04:11.477Z,50.80
2019-05-13T19:06:42.309Z,50.89
2019-05-13T19:09:11.230Z,51.25
2019-05-13T19:11:42.408Z,51.42
2019-05-13T19:14:12.093Z,51.69
2019-05-13T19:16:41.999Z,52.08
2019-05-13T19:19:13.206Z,52.23
2019-05-13T19:21:41.666Z,52.60
2019-05-13T19:24:11.131Z,52.74
2019-05-13T19:26:41.637Z,52.99
2019-05-13T19:29:11.489Z,53.00
2019-05-13T19:31:41.877Z,53.31
2019-05-13T19:34:12.168Z,53.81
2019-05-13T19:36:40.750Z,54.30
2019-05-13T19:39:11.197Z,54.53
2019-05-13T19:41:38.905Z,54.87
2019-05-13T19:44:07.154Z,55.14
2019-05-13T19:46:35.355Z,55.39
2019-05-13T19:49:03.574Z,55.55
2019-05-13T19:51:32.289Z,55.85
2019-05-13T19:54:01.327Z,56.11
2019-05-13T19:56:31.789Z,56.38
2019-05-13T19:59:01.577Z,56.62
2019-05-13T20:01:32.022Z,57.12
2019-05-13T20:04:02.120Z,57.67
2019-05-13T20:06:31.847Z,57.71
2019-05-13T20:09:01.516Z,57.89
2019-05-13T20:11:29.492Z,57.98
2019-05-13T20:13:58.124Z,58.16
2019-05-13T20:16:26.340Z,58.32
2019-05-13T20:18:54.546Z,58.53
2019-05-13T20:21:22.792Z,58.70
2019-05-13T20:23:51.853Z,58.79
2019-05-13T20:26:21.701Z,59.02
2019-05-13T20:28:51.290Z,59.18
2019-05-13T20:31:21.633Z,59.19
2019-05-13T20:33:51.535Z,59.51
2019-05-13T20:36:21.996Z,59.65
2019-05-13T20:38:51.609Z,59.65
2019-05-13T20:41:19.453Z,59.72
2019-05-13T20:43:47.658Z,59.77
2019-05-13T20:46:15.885Z,59.96
2019-05-13T20:48:44.095Z,60.02
2019-05-13T20:51:13.103Z,60.15
2019-05-13T20:53:41.418Z,60.28
2019-05-13T20:56:09.597Z,60.36
2019-05-13T20:58:37.810Z,60.46
2019-05-13T21:01:06.026Z,60.54
2019-05-13T21:03:35.202Z,60.62
2019-05-13T21:06:03.413Z,60.93
2019-05-13T21:08:32.246Z,61.00
2019-05-13T21:11:02.315Z,61.02
2019-05-13T21:13:31.856Z,61.16
2019-05-13T21:16:02.359Z,61.22
2019-05-13T21:18:31.558Z,61.44
2019-05-13T21:21:00.050Z,61.60
2019-05-13T21:23:28.609Z,61.86
2019-05-13T21:25:56.803Z,61.98
2019-05-13T21:28:25.366Z,61.99
2019-05-13T21:30:53.612Z,62.13
2019-05-13T21:33:22.317Z,62.47
2019-05-13T21:35:51.131Z,62.62
2019-05-13T21:38:22.199Z,62.72
2019-05-13T21:40:52.071Z,62.77
2019-05-13T21:43:21.578Z,63.00
2019-05-13T21:45:52.277Z,63.11
2019-05-13T21:48:21.768Z,63.25
2019-05-13T21:50:51.659Z,63.56
2019-05-13T21:53:21.748Z,63.64
2019-05-13T21:55:52.067Z,63.84
2019-05-13T21:58:22.215Z,63.89
2019-05-13T22:00:52.021Z,64.22
2019-05-13T22:03:20.580Z,64.33
2019-05-13T22:05:51.320Z,64.40
2019-05-13T22:08:18.758Z,64.52
2019-05-13T22:10:46.991Z,64.62
2019-05-13T22:13:15.193Z,64.99
2019-05-13T22:15:43.404Z,65.15
2019-05-13T22:18:11.633Z,65.26
2019-05-13T22:20:50.047Z,65.30
2019-05-13T22:23:11.801Z,65.46
2019-05-13T22:25:43.425Z,65.82
2019-05-13T22:28:11.662Z,65.90
2019-05-13T22:30:41.251Z,65.96
2019-05-13T22:33:12.301Z,66.21
2019-05-13T22:35:41.636Z,66.26
2019-05-13T22:38:12.157Z,66.38
2019-05-13T22:40:41.993Z,66.50
2019-05-13T22:43:12.112Z,66.71
2019-05-13T22:45:41.948Z,66.68
2019-05-13T22:48:12.080Z,66.79
2019-05-13T22:50:41.732Z,66.91
2019-05-13T22:53:11.985Z,66.97
2019-05-13T22:55:41.785Z,67.08
2019-05-13T22:58:09.913Z,67.21
2019-05-13T23:00:38.127Z,67.36
2019-05-13T23:03:06.369Z,67.35
2019-05-13T23:05:34.548Z,67.73
2019-05-13T23:08:03.154Z,67.69
2019-05-13T23:10:31.926Z,67.86
2019-05-13T23:13:02.121Z,67.83
2019-05-13T23:15:30.340Z,67.92
2019-05-13T23:17:58.567Z,68.03
2019-05-13T23:20:27.058Z,68.10
2019-05-13T23:22:56.223Z,68.25
2019-05-13T23:25:24.722Z,68.46
2019-05-13T23:27:52.931Z,68.46
2019-05-13T23:30:21.140Z,68.51
2019-05-13T23:32:51.616Z,68.54
2019-05-13T23:35:21.707Z,68.63
2019-05-13T23:37:51.010Z,68.70
2019-05-13T23:40:19.251Z,68.77
2019-05-13T23:42:47.503Z,68.85
2019-05-13T23:45:16.070Z,69.03
2019-05-13T23:47:44.281Z,69.12
2019-05-13T23:50:12.872Z,69.16
2019-05-13T23:52:41.860Z,69.24
2019-05-13T23:55:10.993Z,69.31
2019-05-13T23:57:41.943Z,69.30
